Time;durP1;ratioP1;P1;durP2;ratioP2;P2;SDS_P1;SDS_P2;PMS_P1;PMS_P2;Temp;Humidity;BMP_temperature;BMP_pressure;BME280_temperature;BME280_humidity;BME280_pressure;Samples;Min_cycle;Max_cycle;Signal;HPM_P1;HPM_P2
2024/02/21 00:01:59;;;;;;;48.38;21.65;;;;;;;8.09;100.00;101831.25;10356609;27;20040;-71
2024/02/21 00:06:56;;;;;;;48.00;23.92;;;;;;;8.09;100.00;101834.78;10349244;27;20043;-70
2024/02/21 00:11:52;;;;;;;41.42;22.52;;;;;;;8.04;100.00;101813.00;10357690;27;20067;-71
2024/02/21 00:16:49;;;;;;;41.85;22.65;;;;;;;7.92;100.00;101805.13;10351819;27;20036;-71
2024/02/21 00:21:45;;;;;;;46.25;22.17;;;;;;;7.90;100.00;101811.94;10345482;27;20032;-71
2024/02/21 00:26:42;;;;;;;49.95;24.25;;;;;;;7.91;100.00;101786.31;10346848;27;21273;-70
2024/02/21 00:31:38;;;;;;;45.08;22.90;;;;;;;7.92;100.00;101793.41;10350375;28;20052;-69
2024/02/21 00:36:35;;;;;;;41.17;22.67;;;;;;;7.97;100.00;101768.91;10337465;28;20056;-69
2024/02/21 00:41:31;;;;;;;52.30;22.73;;;;;;;7.95;100.00;101779.25;10345218;27;20047;-72
2024/02/21 00:46:30;;;;;;;42.28;22.23;;;;;;;7.99;100.00;101764.00;10357477;27;20071;-70
2024/02/21 00:51:27;;;;;;;49.10;23.35;;;;;;;7.98;100.00;101748.72;10354930;27;20522;-71
2024/02/21 00:56:23;;;;;;;54.42;25.73;;;;;;;7.95;100.00;101749.28;10351152;27;20052;-71
2024/02/21 01:01:26;;;;;;;45.78;23.35;;;;;;;7.93;100.00;101746.81;10333785;27;20044;-70
2024/02/21 01:06:23;;;;;;;40.42;23.65;;;;;;;7.97;100.00;101736.22;10346210;28;20085;-71
2024/02/21 01:11:20;;;;;;;47.05;24.08;;;;;;;7.98;100.00;101733.22;10353090;27;20105;-72
2024/02/21 01:16:16;;;;;;;40.22;23.00;;;;;;;8.00;100.00;101732.94;10344603;27;20058;-69
2024/02/21 01:21:13;;;;;;;42.42;25.48;;;;;;;8.00;100.00;101713.88;10341354;27;20036;-71
2024/02/21 01:26:12;;;;;;;44.63;23.48;;;;;;;7.99;100.00;101702.16;10345982;27;20075;-71
2024/02/21 01:31:10;;;;;;;39.75;23.67;;;;;;;7.93;100.00;101702.44;10347188;27;20055;-71
2024/02/21 01:36:06;;;;;;;46.15;24.20;;;;;;;7.85;100.00;101698.38;10355980;27;20123;-71
2024/02/21 01:41:03;;;;;;;47.08;24.90;;;;;;;7.83;100.00;101686.97;10348611;27;20071;-71
2024/02/21 01:46:00;;;;;;;41.75;24.63;;;;;;;7.73;100.00;101660.56;10347126;27;20529;-72
2024/02/21 01:50:57;;;;;;;49.53;24.55;;;;;;;7.67;100.00;101634.44;10348025;27;21649;-71
2024/02/21 01:55:53;;;;;;;50.55;29.02;;;;;;;7.60;100.00;101617.59;10340689;27;20044;-72
2024/02/21 02:00:50;;;;;;;49.10;26.35;;;;;;;7.58;100.00;101600.72;10342961;27;20040;-72
2024/02/21 02:05:48;;;;;;;42.63;25.40;;;;;;;7.54;100.00;101575.13;10347249;27;20591;-69
2024/02/21 02:10:45;;;;;;;55.17;26.88;;;;;;;7.50;100.00;101546.88;10349058;28;20070;-70
2024/02/21 02:15:43;;;;;;;56.42;27.17;;;;;;;7.48;100.00;101511.75;10355005;27;20546;-70
2024/02/21 02:20:40;;;;;;;49.25;26.80;;;;;;;7.50;100.00;101473.41;10348362;27;20051;-72
2024/02/21 02:25:38;;;;;;;57.35;28.83;;;;;;;7.49;100.00;101441.81;10338566;27;20051;-71
2024/02/21 02:30:38;;;;;;;56.33;27.70;;;;;;;7.51;100.00;101398.81;10346512;27;20131;-71
2024/02/21 02:35:37;;;;;;;53.80;29.25;;;;;;;7.49;100.00;101363.72;10351264;27;20055;-71
2024/02/21 02:40:34;;;;;;;46.15;27.75;;;;;;;7.47;100.00;101344.16;10344080;28;20044;-71
2024/02/21 02:45:31;;;;;;;51.13;28.40;;;;;;;7.51;100.00;101371.59;10355451;27;20166;-71
2024/02/21 02:50:28;;;;;;;61.03;29.90;;;;;;;7.57;100.00;101394.97;10354115;27;20109;-72
2024/02/21 02:55:25;;;;;;;52.92;27.10;;;;;;;7.63;100.00;101399.28;10346478;27;20040;-71
2024/02/21 03:00:22;;;;;;;54.40;28.52;;;;;;;7.64;100.00;101395.47;10341224;27;20060;-71
2024/02/21 03:05:20;;;;;;;48.72;27.92;;;;;;;7.66;100.00;101403.34;10344328;27;20585;-69
2024/02/21 03:10:17;;;;;;;58.08;27.48;;;;;;;7.66;100.00;101420.50;10346222;27;20139;-69
2024/02/21 03:15:15;;;;;;;54.85;29.25;;;;;;;7.70;100.00;101448.78;10340156;28;20043;-70
2024/02/21 03:20:12;;;;;;;48.63;26.50;;;;;;;7.72;100.00;101446.59;10342644;27;20057;-69
2024/02/21 03:25:10;;;;;;;51.58;25.67;;;;;;;7.75;100.00;101451.50;10347024;27;20089;-69
2024/02/21 03:30:07;;;;;;;54.10;29.58;;;;;;;7.78;100.00;101475.44;10355169;27;20052;-70
2024/02/21 03:35:04;;;;;;;52.33;26.98;;;;;;;7.84;100.00;101489.00;10354740;27;20070;-71
2024/02/21 03:40:01;;;;;;;44.72;26.83;;;;;;;7.87;100.00;101481.09;10349053;28;20488;-73
2024/02/21 03:44:58;;;;;;;48.22;28.25;;;;;;;7.95;100.00;101504.19;10352418;28;20105;-71
2024/02/21 03:49:54;;;;;;;49.00;27.95;;;;;;;7.98;100.00;101498.19;10352520;27;20490;-71
2024/02/21 03:54:51;;;;;;;50.95;28.95;;;;;;;7.98;100.00;101509.06;10352690;27;20063;-71
2024/02/21 03:59:51;;;;;;;53.95;28.33;;;;;;;7.92;100.00;101499.31;10350214;27;20048;-70
2024/02/21 04:04:47;;;;;;;41.20;22.15;;;;;;;7.74;100.00;101498.84;10340818;28;20619;-69
2024/02/21 04:09:44;;;;;;;50.28;26.58;;;;;;;7.70;100.00;101476.00;10350500;27;20048;-68
2024/02/21 04:14:41;;;;;;;53.53;27.88;;;;;;;7.68;100.00;101472.78;10351465;27;20690;-70
2024/02/21 04:19:41;;;;;;;49.38;25.95;;;;;;;7.66;100.00;101449.63;10332065;27;20068;-70
2024/02/21 04:24:38;;;;;;;46.33;26.58;;;;;;;7.64;100.00;101436.31;10351477;27;20040;-69
2024/02/21 04:29:35;;;;;;;46.95;27.20;;;;;;;7.61;100.00;101423.25;10339804;27;20040;-67
2024/02/21 04:34:31;;;;;;;52.33;27.95;;;;;;;7.58;100.00;101407.47;10350833;27;20075;-68
2024/02/21 04:39:28;;;;;;;44.65;25.20;;;;;;;7.59;100.00;101400.97;10352457;27;20040;-68
2024/02/21 04:44:24;;;;;;;48.00;26.05;;;;;;;7.57;100.00;101393.06;10349285;27;20059;-68
2024/02/21 04:49:21;;;;;;;41.17;21.15;;;;;;;7.55;100.00;101391.72;10355131;27;20044;-67
2024/02/21 04:54:18;;;;;;;38.47;23.80;;;;;;;7.53;100.00;101374.88;10347559;27;20048;-68
2024/02/21 04:59:14;;;;;;;39.47;22.17;;;;;;;7.52;100.00;101370.50;10334576;27;20067;-68
2024/02/21 05:04:11;;;;;;;41.42;22.15;;;;;;;7.49;100.00;101354.75;10340561;27;20458;-67
2024/02/21 05:09:08;;;;;;;35.33;21.10;;;;;;;7.46;100.00;101352.59;10350271;27;20040;-66
2024/02/21 05:14:05;;;;;;;35.03;19.88;;;;;;;7.47;100.00;101329.72;10336875;27;20048;-67
2024/02/21 05:19:02;;;;;;;33.63;18.83;;;;;;;7.44;100.00;101316.69;10338389;27;20048;-67
2024/02/21 05:23:59;;;;;;;38.53;20.98;;;;;;;7.41;100.00;101303.66;10344016;27;20123;-67
2024/02/21 05:28:56;;;;;;;32.00;18.15;;;;;;;7.43;100.00;101317.78;10342714;27;20040;-67
2024/02/21 05:33:53;;;;;;;29.58;16.77;;;;;;;7.42;100.00;101306.06;10341144;27;20574;-67
2024/02/21 05:38:49;;;;;;;29.25;16.45;;;;;;;7.46;100.00;101290.00;10342445;28;20044;-68
2024/02/21 05:43:47;;;;;;;22.05;13.18;;;;;;;7.40;100.00;101285.69;10338896;27;20052;-67
2024/02/21 05:48:43;;;;;;;24.20;14.60;;;;;;;7.40;100.00;101274.81;10336753;27;20131;-67
2024/02/21 05:53:40;;;;;;;21.20;12.80;;;;;;;7.41;100.00;101266.38;10345515;27;20036;-69
2024/02/21 05:58:37;;;;;;;18.52;11.40;;;;;;;7.40;100.00;101272.09;10346808;27;20036;-70
2024/02/21 06:03:33;;;;;;;17.90;12.13;;;;;;;7.40;100.00;101267.44;10334822;27;20040;-68
2024/02/21 06:08:31;;;;;;;17.83;10.90;;;;;;;7.41;100.00;101265.56;10349803;27;20388;-68
2024/02/21 06:13:27;;;;;;;17.67;10.27;;;;;;;7.45;100.00;101277.50;10339614;27;20059;-69
2024/02/21 06:18:24;;;;;;;13.73;9.40;;;;;;;7.44;100.00;101278.59;10342912;27;20051;-69
2024/02/21 06:23:20;;;;;;;12.85;8.27;;;;;;;7.47;100.00;101280.75;10346565;27;20051;-69
2024/02/21 06:28:17;;;;;;;8.68;5.93;;;;;;;7.45;100.00;101261.16;10352444;27;20089;-70
2024/02/21 06:33:13;;;;;;;12.02;6.68;;;;;;;7.45;100.00;101259.28;10347112;27;20478;-70
2024/02/21 06:38:10;;;;;;;13.50;7.63;;;;;;;7.46;100.00;101251.91;10342867;27;20044;-70
2024/02/21 06:43:07;;;;;;;10.68;7.15;;;;;;;7.46;100.00;101257.38;10348077;27;20051;-70
2024/02/21 06:48:03;;;;;;;11.20;6.88;;;;;;;7.47;100.00;101258.97;10343868;27;20456;-73
2024/02/21 06:53:00;;;;;;;12.57;7.50;;;;;;;7.51;100.00;101249.16;10345315;28;20572;-70
2024/02/21 06:57:56;;;;;;;10.50;6.65;;;;;;;7.53;100.00;101246.97;10350906;27;20035;-70
2024/02/21 07:02:53;;;;;;;8.68;6.18;;;;;;;7.54;100.00;101245.84;10343419;27;20043;-70
2024/02/21 07:07:49;;;;;;;8.23;6.32;;;;;;;7.55;100.00;101239.34;10342542;28;20704;-70
2024/02/21 07:12:46;;;;;;;10.55;6.95;;;;;;;7.51;100.00;101244.53;10350802;28;20105;-72
2024/02/21 07:17:43;;;;;;;9.77;6.53;;;;;;;7.53;100.00;101236.09;10350833;27;20119;-72
2024/02/21 07:22:39;;;;;;;14.30;8.27;;;;;;;7.56;100.00;101230.06;10352391;27;20105;-71
2024/02/21 07:27:37;;;;;;;13.40;7.95;;;;;;;7.60;100.00;101236.56;10354434;27;20084;-72
2024/02/21 07:32:33;;;;;;;12.30;7.75;;;;;;;7.60;100.00;101239.28;10361394;27;20039;-71
2024/02/21 07:37:30;;;;;;;12.10;8.13;;;;;;;7.60;100.00;101250.19;10358152;27;20563;-71
2024/02/21 07:42:29;;;;;;;14.68;8.82;;;;;;;7.62;100.00;101250.72;10358460;27;20040;-71
2024/02/21 07:47:25;;;;;;;15.07;8.98;;;;;;;7.63;100.00;101257.75;10356552;27;20868;-73
2024/02/21 07:52:22;;;;;;;12.20;7.90;;;;;;;7.67;100.00;101264.25;10347823;28;20043;-71
2024/02/21 07:57:18;;;;;;;13.27;8.10;;;;;;;7.69;100.00;101248.47;10358183;27;20048;-71
2024/02/21 08:02:15;;;;;;;9.35;6.40;;;;;;;7.70;100.00;101258.25;10357516;27;20500;-72
2024/02/21 08:07:12;;;;;;;9.50;5.97;;;;;;;7.69;100.00;101251.19;10339609;27;20416;-71
2024/02/21 08:12:08;;;;;;;10.45;6.93;;;;;;;7.69;100.00;101262.06;10348725;27;20036;-72
2024/02/21 08:17:05;;;;;;;12.50;6.15;;;;;;;7.66;100.00;101268.09;10350419;28;20040;-72
2024/02/21 08:22:03;;;;;;;11.95;5.60;;;;;;;7.72;100.00;101261.50;10351468;27;20047;-71
2024/02/21 08:26:59;;;;;;;12.15;6.30;;;;;;;7.70;100.00;101273.75;10354990;27;20048;-72
2024/02/21 08:31:56;;;;;;;12.13;6.40;;;;;;;7.73;100.00;101290.34;10358530;27;20040;-71
2024/02/21 08:36:52;;;;;;;15.73;6.20;;;;;;;7.62;100.00;101294.25;10357989;27;20201;-69
2024/02/21 08:41:49;;;;;;;15.02;6.75;;;;;;;7.67;100.00;101307.81;10349826;27;20420;-72
2024/02/21 08:46:53;;;;;;;20.40;6.90;;;;;;;7.63;100.00;101323.06;10339267;27;20055;-71
2024/02/21 08:51:49;;;;;;;21.02;7.30;;;;;;;7.83;100.00;101327.56;10354640;27;20102;-70
2024/02/21 08:56:46;;;;;;;13.98;7.25;;;;;;;7.72;100.00;101340.44;10349931;27;20094;-69
2024/02/21 09:01:43;;;;;;;19.17;7.60;;;;;;;7.73;100.00;101363.84;10350467;27;20093;-71
2024/02/21 09:06:42;;;;;;;17.95;7.53;;;;;;;7.64;100.00;101368.25;10346506;27;20148;-69
2024/02/21 09:11:39;;;;;;;23.38;8.93;;;;;;;7.70;100.00;101369.84;10342323;27;20044;-70
2024/02/21 09:16:36;;;;;;;18.25;7.55;;;;;;;7.76;100.00;101370.63;10345195;28;20087;-69
2024/02/21 09:21:35;;;;;;;13.98;7.03;;;;;;;7.75;100.00;101369.81;10351242;27;20071;-69
2024/02/21 09:26:32;;;;;;;11.70;6.43;;;;;;;7.82;100.00;101368.69;10347982;27;20117;-69
2024/02/21 09:31:28;;;;;;;13.18;6.32;;;;;;;7.93;100.00;101360.16;10360430;27;20106;-69
2024/02/21 09:36:25;;;;;;;14.90;7.20;;;;;;;7.79;100.00;101359.97;10359403;27;20076;-69
2024/02/21 09:41:28;;;;;;;15.52;6.57;;;;;;;7.74;100.00;101370.91;10354725;27;20048;-70
2024/02/21 09:46:37;;;;;;;16.27;7.40;;;;;;;7.82;100.00;101352.34;10341190;27;20074;-70
2024/02/21 09:51:36;;;;;;;14.68;6.80;;;;;;;7.78;100.00;101346.66;10353961;27;20644;-70
2024/02/21 09:56:32;;;;;;;15.38;6.80;;;;;;;7.89;100.00;101350.09;10349615;27;20047;-70
2024/02/21 10:01:29;;;;;;;16.20;6.60;;;;;;;7.90;100.00;101344.38;10349274;27;20052;-70
2024/02/21 10:06:31;;;;;;;18.95;7.88;;;;;;;7.91;100.00;101342.47;10342600;27;20091;-70
2024/02/21 10:11:28;;;;;;;8.18;6.63;;;;;;;7.92;100.00;101330.50;10356423;27;20054;-70
2024/02/21 10:16:24;;;;;;;10.32;7.43;;;;;;;7.91;100.00;101324.22;10349114;27;20055;-70
2024/02/21 10:21:21;;;;;;;12.25;7.97;;;;;;;7.90;100.00;101324.53;10346372;27;20048;-70
2024/02/21 10:26:19;;;;;;;13.73;9.60;;;;;;;7.92;100.00;101316.88;10349621;27;20135;-70
2024/02/21 10:31:28;;;;;;;18.13;12.00;;;;;;;7.90;100.00;101316.34;10346188;27;20119;-69
2024/02/21 10:36:26;;;;;;;24.08;15.70;;;;;;;7.95;100.00;101298.06;10355937;27;20079;-70
2024/02/21 10:41:23;;;;;;;27.38;17.63;;;;;;;8.01;100.00;101296.13;10360346;27;20048;-70
2024/02/21 10:46:22;;;;;;;24.67;17.77;;;;;;;8.02;100.00;101289.56;10359219;27;20040;-70
2024/02/21 10:51:20;;;;;;;34.25;20.25;;;;;;;8.07;100.00;101284.06;10361568;27;20048;-70
2024/02/21 10:56:23;;;;;;;28.88;18.55;;;;;;;8.06;100.00;101277.00;10361476;27;20040;-69
2024/02/21 11:01:21;;;;;;;36.75;17.80;;;;;;;8.01;100.00;101275.13;10355849;27;20051;-70
2024/02/21 11:06:20;;;;;;;35.67;20.20;;;;;;;8.07;100.00;101273.16;10356163;27;20127;-70
2024/02/21 11:11:21;;;;;;;30.58;20.25;;;;;;;8.04;100.00;101284.63;10353715;27;20055;-69
2024/02/21 11:16:35;;;;;;;41.60;20.05;;;;;;;8.03;100.00;101280.31;10352757;28;20462;-69
2024/02/21 11:21:36;;;;;;;39.30;20.77;;;;;;;8.06;100.00;101276.19;10365678;27;20048;-70
2024/02/21 11:26:32;;;;;;;27.27;18.50;;;;;;;8.02;100.00;101284.09;10364797;27;20089;-69
2024/02/21 11:31:40;;;;;;;24.83;18.40;;;;;;;8.10;100.00;101297.13;10363217;27;20044;-69
2024/02/21 11:36:45;;;;;;;33.70;16.45;;;;;;;8.09;100.00;101281.84;10348683;28;20043;-69
2024/02/21 11:41:42;;;;;;;25.38;16.30;;;;;;;8.09;100.00;101291.94;10369088;28;20551;-69
2024/02/21 11:46:39;;;;;;;24.23;16.77;;;;;;;8.04;100.00;101306.44;10356338;27;20065;-69
2024/02/21 11:51:35;;;;;;;26.25;14.95;;;;;;;8.02;100.00;101301.25;10347071;27;20160;-70
2024/02/21 11:56:32;;;;;;;21.52;15.30;;;;;;;8.07;100.00;101313.22;10347536;27;20480;-70
2024/02/21 12:01:29;;;;;;;31.77;16.02;;;;;;;8.06;100.00;101303.44;10352013;27;20044;-70
2024/02/21 12:06:25;;;;;;;22.23;14.65;;;;;;;8.04;100.00;101295.53;10350281;27;20430;-71
2024/02/21 12:11:22;;;;;;;25.20;15.45;;;;;;;8.04;100.00;101290.09;10349645;27;20047;-70
2024/02/21 12:16:20;;;;;;;22.35;13.85;;;;;;;8.12;100.00;101307.72;10360686;27;20414;-70
2024/02/21 12:21:17;;;;;;;21.52;14.70;;;;;;;8.22;100.00;101300.25;10344331;27;20055;-70
2024/02/21 12:26:13;;;;;;;25.60;14.88;;;;;;;8.14;100.00;101311.75;10353629;28;20192;-69
2024/02/21 12:31:10;;;;;;;22.45;14.40;;;;;;;8.09;100.00;101303.66;10351716;27;20511;-69
2024/02/21 12:36:08;;;;;;;22.45;14.70;;;;;;;8.11;100.00;101301.44;10357503;27;20044;-70
2024/02/21 12:41:05;;;;;;;20.95;13.93;;;;;;;8.06;100.00;101315.13;10355842;28;20079;-69
2024/02/21 12:46:01;;;;;;;16.83;14.20;;;;;;;8.09;100.00;101303.66;10362557;27;20048;-72
2024/02/21 12:50:58;;;;;;;19.95;14.82;;;;;;;8.08;100.00;101312.94;10355073;27;20052;-69
2024/02/21 12:55:54;;;;;;;27.10;15.88;;;;;;;8.02;100.00;101297.72;10352631;27;20051;-70
2024/02/21 13:00:51;;;;;;;28.10;17.45;;;;;;;8.10;100.00;101288.94;10358781;27;20043;-69
2024/02/21 13:05:48;;;;;;;32.38;19.42;;;;;;;8.11;100.00;101276.13;10351538;27;20126;-69
2024/02/21 13:10:44;;;;;;;26.10;17.75;;;;;;;8.14;100.00;101273.63;10347760;27;20040;-69
2024/02/21 13:15:43;;;;;;;24.25;16.10;;;;;;;8.20;100.00;101261.59;10355738;27;20527;-70
2024/02/21 13:20:39;;;;;;;29.55;17.02;;;;;;;8.30;100.00;101255.22;10342692;27;20047;-69
2024/02/21 13:25:36;;;;;;;26.98;16.13;;;;;;;8.31;100.00;101256.03;10345624;27;20044;-70
2024/02/21 13:30:32;;;;;;;30.63;16.90;;;;;;;8.38;100.00;101245.63;10360805;27;20051;-70
2024/02/21 13:35:29;;;;;;;26.20;17.02;;;;;;;8.41;100.00;101226.78;10357929;27;20048;-69
2024/02/21 13:40:25;;;;;;;22.70;16.27;;;;;;;8.43;100.00;101215.63;10348815;27;20036;-70
2024/02/21 13:45:22;;;;;;;20.30;15.88;;;;;;;8.37;100.00;101200.38;10345297;27;20134;-69
2024/02/21 13:50:21;;;;;;;28.98;15.80;;;;;;;8.35;100.00;101180.78;10342291;27;20052;-70
2024/02/21 13:55:18;;;;;;;24.58;15.63;;;;;;;8.40;100.00;101172.56;10349402;27;20044;-70
2024/02/21 14:00:15;;;;;;;25.13;15.15;;;;;;;8.45;100.00;101158.91;10352421;27;20647;-69
2024/02/21 14:05:12;;;;;;;21.77;15.02;;;;;;;8.60;100.00;101145.06;10350658;27;20513;-71
2024/02/21 14:10:09;;;;;;;21.85;15.80;;;;;;;8.65;100.00;101130.53;10344945;27;20048;-70
2024/02/21 14:15:06;;;;;;;23.05;15.80;;;;;;;8.73;100.00;101110.00;10340884;27;20040;-70
2024/02/21 14:20:04;;;;;;;20.05;15.35;;;;;;;8.82;100.00;101113.69;10353055;27;20044;-70
2024/02/21 14:25:01;;;;;;;23.38;16.52;;;;;;;8.93;100.00;101096.03;10355717;28;20052;-69
2024/02/21 14:29:58;;;;;;;24.73;13.98;;;;;;;9.00;100.00;101074.63;10351511;28;20410;-69
2024/02/21 14:34:54;;;;;;;19.60;14.27;;;;;;;8.97;100.00;101061.59;10340130;27;20121;-69
2024/02/21 14:39:51;;;;;;;18.60;15.25;;;;;;;9.09;100.00;101046.69;10357629;27;20044;-70
2024/02/21 14:44:47;;;;;;;22.50;14.98;;;;;;;9.09;100.00;101013.97;10348698;27;20101;-71
2024/02/21 14:49:44;;;;;;;19.75;12.77;;;;;;;9.02;100.00;101019.81;10343522;28;20051;-71
2024/02/21 14:54:44;;;;;;;18.90;14.02;;;;;;;8.98;100.00;101025.06;10349071;27;20101;-71
2024/02/21 14:59:41;;;;;;;16.75;14.20;;;;;;;8.89;100.00;101015.94;10357589;28;20491;-71
2024/02/21 15:04:37;;;;;;;21.42;15.63;;;;;;;8.87;100.00;101012.72;10347942;27;20071;-72
2024/02/21 15:09:34;;;;;;;23.80;16.00;;;;;;;8.86;100.00;100997.44;10344627;27;20086;-69
2024/02/21 15:14:30;;;;;;;22.40;15.82;;;;;;;8.77;100.00;100991.06;10348519;27;20711;-71
2024/02/21 15:19:27;;;;;;;21.30;13.55;;;;;;;8.74;100.00;100980.75;10339108;27;20044;-71
2024/02/21 15:24:24;;;;;;;14.95;13.07;;;;;;;8.62;100.00;100962.94;10351297;27;20062;-70
2024/02/21 15:29:21;;;;;;;20.88;13.70;;;;;;;8.59;100.00;100955.38;10367979;27;20418;-68
2024/02/21 15:34:17;;;;;;;17.33;12.38;;;;;;;8.56;100.00;100939.63;10361386;27;20043;-70
2024/02/21 15:39:14;;;;;;;17.08;11.90;;;;;;;8.52;100.00;100918.72;10357235;27;20068;-70
2024/02/21 15:44:11;;;;;;;11.93;10.30;;;;;;;8.51;100.00;100917.09;10354989;27;20044;-70
2024/02/21 15:49:08;;;;;;;17.45;11.60;;;;;;;8.48;100.00;100934.06;10357232;27;20036;-70
2024/02/21 15:54:04;;;;;;;11.88;10.15;;;;;;;8.46;100.00;100925.34;10360904;27;20127;-70
2024/02/21 15:59:01;;;;;;;12.10;9.77;;;;;;;8.42;100.00;100914.22;10354155;28;20059;-68
2024/02/21 16:03:58;;;;;;;11.70;9.95;;;;;;;8.38;100.00;100880.50;10357082;27;20086;-69
2024/02/21 16:08:55;;;;;;;12.05;9.02;;;;;;;8.41;100.00;100858.13;10360105;27;20040;-69
2024/02/21 16:13:52;;;;;;;15.57;10.50;;;;;;;8.40;100.00;100842.88;10352139;27;20105;-68
2024/02/21 16:18:49;;;;;;;13.90;9.35;;;;;;;8.40;100.00;100802.00;10351195;27;20043;-69
2024/02/21 16:23:45;;;;;;;11.70;9.05;;;;;;;8.34;100.00;100792.31;10342201;27;20049;-69
2024/02/21 16:28:42;;;;;;;14.50;9.48;;;;;;;8.25;100.00;100791.38;10361056;27;20152;-70
2024/02/21 16:33:38;;;;;;;14.40;8.27;;;;;;;8.27;100.00;100840.94;10351339;27;20078;-70
2024/02/21 16:38:41;;;;;;;12.60;8.13;;;;;;;8.23;100.00;100840.69;10350500;27;20052;-69
2024/02/21 16:43:37;;;;;;;12.18;8.13;;;;;;;8.29;100.00;100833.25;10348085;27;20068;-70
2024/02/21 16:48:34;;;;;;;13.05;8.80;;;;;;;8.25;100.00;100821.34;10350674;27;20075;-71
2024/02/21 16:53:31;;;;;;;8.75;7.95;;;;;;;8.22;100.00;100829.00;10338684;28;20546;-70
2024/02/21 16:58:30;;;;;;;12.15;8.68;;;;;;;8.23;100.00;100819.72;10349025;28;20044;-69
2024/02/21 17:03:27;;;;;;;15.82;8.65;;;;;;;8.22;100.00;100812.66;10352539;28;20490;-69
2024/02/21 17:08:25;;;;;;;10.60;8.27;;;;;;;8.19;100.00;100807.81;10348374;27;20048;-70
2024/02/21 17:13:22;;;;;;;11.90;8.30;;;;;;;8.17;100.00;100799.13;10348828;28;20048;-69
2024/02/21 17:18:18;;;;;;;12.25;7.60;;;;;;;8.14;100.00;100772.47;10348248;27;20093;-69
2024/02/21 17:23:15;;;;;;;11.88;8.30;;;;;;;8.12;100.00;100774.72;10349637;27;20120;-70
2024/02/21 17:28:12;;;;;;;13.50;8.57;;;;;;;8.13;100.00;100756.47;10353801;27;20093;-70
2024/02/21 17:33:08;;;;;;;12.07;7.95;;;;;;;8.08;100.00;100754.63;10343949;27;20084;-70
2024/02/21 17:38:06;;;;;;;11.98;8.00;;;;;;;8.05;100.00;100751.69;10346869;27;20296;-70
2024/02/21 17:43:03;;;;;;;12.68;8.95;;;;;;;8.03;100.00;100738.41;10347544;27;20546;-70
2024/02/21 17:48:00;;;;;;;11.25;8.30;;;;;;;8.00;100.00;100725.38;10340959;27;20044;-70
2024/02/21 17:52:56;;;;;;;14.48;9.23;;;;;;;7.98;100.00;100713.97;10340021;27;20063;-70
2024/02/21 17:57:54;;;;;;;13.48;9.45;;;;;;;7.97;100.00;100701.47;10336778;27;20063;-69
2024/02/21 18:02:51;;;;;;;19.63;9.02;;;;;;;7.91;100.00;100697.22;10350123;27;20637;-72
2024/02/21 18:07:47;;;;;;;16.60;10.43;;;;;;;7.92;100.00;100677.06;10351617;27;20135;-72
2024/02/21 18:12:44;;;;;;;15.43;9.98;;;;;;;7.89;100.00;100670.31;10349645;27;20056;-71
2024/02/21 18:17:40;;;;;;;14.05;9.93;;;;;;;7.84;100.00;100653.25;10345511;27;20044;-72
2024/02/21 18:22:37;;;;;;;18.63;10.50;;;;;;;7.80;100.00;100645.69;10345452;27;20464;-72
2024/02/21 18:27:34;;;;;;;16.20;9.93;;;;;;;7.78;100.00;100637.00;10348224;27;20050;-71
2024/02/21 18:32:30;;;;;;;16.60;10.63;;;;;;;7.78;100.00;100628.84;10349161;27;20543;-72
2024/02/21 18:37:28;;;;;;;23.27;10.32;;;;;;;7.74;100.00;100616.94;10345966;27;20048;-71
2024/02/21 18:42:25;;;;;;;15.82;10.00;;;;;;;7.73;100.00;100609.91;10346000;27;20040;-71
2024/02/21 18:47:21;;;;;;;15.35;9.38;;;;;;;7.70;100.00;100588.72;10348524;27;20040;-71
2024/02/21 18:52:18;;;;;;;14.05;9.93;;;;;;;7.65;100.00;100577.13;10348505;27;20051;-71
2024/02/21 18:57:17;;;;;;;12.57;8.73;;;;;;;7.68;100.00;100571.91;10352575;27;20040;-71
2024/02/21 19:02:13;;;;;;;15.35;9.07;;;;;;;7.67;100.00;100556.66;10359056;27;20047;-71
2024/02/21 19:07:10;;;;;;;15.35;9.35;;;;;;;7.68;100.00;100558.28;10359659;27;20063;-71
2024/02/21 19:12:06;;;;;;;13.85;9.18;;;;;;;7.69;100.00;100549.00;10350807;27;20052;-71
2024/02/21 19:17:07;;;;;;;8.60;7.43;;;;;;;7.69;100.00;100554.44;10361281;27;20048;-72
2024/02/21 19:22:05;;;;;;;15.98;8.88;;;;;;;7.69;100.00;100538.13;10360795;27;20051;-72
2024/02/21 19:27:02;;;;;;;15.65;8.35;;;;;;;7.69;100.00;100524.53;10358055;27;20048;-71
2024/02/21 19:31:58;;;;;;;16.65;8.43;;;;;;;7.68;100.00;100525.63;10364641;27;20040;-72
2024/02/21 19:36:55;;;;;;;11.20;7.85;;;;;;;7.69;100.00;100516.34;10361789;27;20052;-71
2024/02/21 19:41:52;;;;;;;11.55;8.27;;;;;;;7.71;100.00;100502.44;10363895;27;20044;-71
2024/02/21 19:46:49;;;;;;;13.35;8.15;;;;;;;7.71;100.00;100486.94;10351411;28;20539;-71
2024/02/21 19:51:47;;;;;;;14.88;8.02;;;;;;;7.73;100.00;100476.53;10354565;27;20964;-71
2024/02/21 19:56:44;;;;;;;12.18;7.55;;;;;;;7.76;100.00;100472.41;10356711;27;20048;-73
2024/02/21 20:01:40;;;;;;;15.70;8.32;;;;;;;7.74;100.00;100459.09;10350496;28;20676;-71
2024/02/21 20:06:37;;;;;;;14.15;7.88;;;;;;;7.78;100.00;100454.66;10365162;27;20048;-71
2024/02/21 20:11:34;;;;;;;11.32;6.95;;;;;;;7.79;100.00;100450.81;10362583;27;20043;-72
2024/02/21 20:16:31;;;;;;;18.25;10.13;;;;;;;7.85;100.00;100431.66;10342450;27;20058;-71
2024/02/21 20:21:27;;;;;;;11.38;5.70;;;;;;;7.86;100.00;100422.38;10355981;27;20449;-72
2024/02/21 20:26:24;;;;;;;10.57;5.53;;;;;;;7.86;100.00;100411.50;10354430;27;20044;-71
2024/02/21 20:31:21;;;;;;;10.10;5.53;;;;;;;7.85;100.00;100394.38;10357266;27;20047;-71
2024/02/21 20:36:18;;;;;;;8.57;5.88;;;;;;;7.78;100.00;100393.97;10356941;27;20044;-72
2024/02/21 20:41:18;;;;;;;11.55;6.07;;;;;;;7.72;100.00;100374.22;10358007;27;20453;-72
2024/02/21 20:46:15;;;;;;;8.70;5.32;;;;;;;7.68;100.00;100366.97;10356437;27;20139;-71
2024/02/21 20:51:11;;;;;;;9.77;6.22;;;;;;;7.59;100.00;100347.88;10356639;27;20052;-72
2024/02/21 20:56:10;;;;;;;8.70;5.80;;;;;;;7.46;100.00;100344.06;10350919;27;20551;-71
2024/02/21 21:01:07;;;;;;;9.20;5.68;;;;;;;7.38;100.00;100342.09;10355657;27;20060;-71
2024/02/21 21:06:05;;;;;;;11.95;6.65;;;;;;;7.22;100.00;100347.03;10352298;27;20051;-71
2024/02/21 21:11:01;;;;;;;14.13;6.80;;;;;;;7.14;100.00;100334.16;10347686;28;20097;-72
2024/02/21 21:15:58;;;;;;;11.05;6.55;;;;;;;7.09;100.00;100328.81;10351263;27;20101;-71
2024/02/21 21:20:54;;;;;;;12.07;6.32;;;;;;;7.03;100.00;100319.97;10363328;27;20048;-72
2024/02/21 21:25:51;;;;;;;8.45;6.25;;;;;;;6.98;100.00;100311.09;10352874;27;20453;-72
2024/02/21 21:30:49;;;;;;;12.32;6.57;;;;;;;7.01;100.00;100305.06;10349680;27;20119;-72
2024/02/21 21:35:48;;;;;;;11.20;5.90;;;;;;;7.01;100.00;100289.56;10337676;28;20044;-71
2024/02/21 21:40:45;;;;;;;11.40;6.13;;;;;;;7.07;100.00;100265.78;10357442;27;20507;-70
2024/02/21 21:45:42;;;;;;;10.75;6.25;;;;;;;7.14;100.00;100249.88;10354987;27;20087;-71
2024/02/21 21:50:39;;;;;;;13.45;7.28;;;;;;;7.15;100.00;100251.50;10340558;27;20048;-70
2024/02/21 21:55:35;;;;;;;13.65;6.85;;;;;;;7.14;100.00;100236.28;10343237;27;20070;-71
2024/02/21 22:00:32;;;;;;;8.88;6.53;;;;;;;7.10;100.00;100221.69;10346200;27;20504;-71
2024/02/21 22:05:28;;;;;;;8.82;6.30;;;;;;;7.14;100.00;100212.59;10348107;27;20528;-70
2024/02/21 22:10:25;;;;;;;10.95;7.13;;;;;;;7.16;100.00;100209.59;10352039;27;20113;-70
2024/02/21 22:15:21;;;;;;;8.77;6.45;;;;;;;7.15;100.00;100191.69;10343454;27;20120;-70
2024/02/21 22:20:25;;;;;;;9.65;6.75;;;;;;;7.08;100.00;100191.31;10344708;27;20042;-71